This is the latest recevied weather packets stored in our database for station/object VK3XEM-13. If no packets are shown the sender has not sent any weather packets the latest 10 day(s).
| Time | Temp. | Humidity | Pressure | Rain* | Wind** | Luminosity | Snow |
|---|---|---|---|---|---|---|---|
| 1777766534 | 20° C | 70% | 1010 hPa | 0 mm | - | 8 W/m² | - |
| 1777765634 | 20° C | 70% | 1010.4 hPa | 0 mm | - | 26 W/m² | - |
| 1777764734 | 20° C | 70% | 1010.4 hPa | 0 mm | - | 38 W/m² | - |
| 1777763834 | 20° C | 71% | 1010.4 hPa | 0 mm | - | 36 W/m² | - |
| 1777762934 | 19.44° C | 72% | 1010.4 hPa | 0 mm | - | 52 W/m² | - |
| 1777762035 | 19.44° C | 73% | 1010 hPa | 0 mm | - | 125 W/m² | - |
| 1777761134 | 18.89° C | 75% | 1010.4 hPa | 0 mm | - | 90 W/m² | - |
| 1777760234 | 18.89° C | 76% | 1010.4 hPa | 0 mm | - | 64 W/m² | - |
| 1777759334 | 18.33° C | 77% | 1010.4 hPa | 0 mm | - | 55 W/m² | - |
| 1777758434 | 18.33° C | 78% | 1010.4 hPa | 0 mm | - | 29 W/m² | - |
| 1777757534 | 18.33° C | 78% | 1010.4 hPa | 0 mm | - | 17 W/m² | - |
| 1777756634 | 17.78° C | 78% | 1010 hPa | 0 mm | - | 5 W/m² | - |
| 1777755734 | 18.33° C | 76% | 1010.4 hPa | 0 mm | - | 1 W/m² | - |
| 1777754834 | 18.33° C | 74% | 1011 hPa | 0 mm | - | 0 W/m² | - |
| 1777753934 | 18.89° C | 71% | 1011.4 hPa | 0 mm | - | 0 W/m² | - |
| 1777753034 | 18.89° C | 71% | 1011.4 hPa | 0 mm | - | 0 W/m² | - |
| 1777752134 | 19.44° C | 67% | 1011 hPa | 0 mm | - | 0 W/m² | - |
| 1777751234 | 19.44° C | 66% | 1011 hPa | 0 mm | - | 0 W/m² | - |
| 1777750334 | 20° C | 67% | 1011 hPa | 0 mm | - | 0 W/m² | - |
| 1777749435 | 20.56° C | 62% | 1010.7 hPa | 0 mm | - | 0 W/m² | - |
| 1777748535 | 20.56° C | 61% | 1010.7 hPa | 0 mm | - | 0 W/m² | - |
| 1777747635 | 20.56° C | 60% | 1010.4 hPa | 0 mm | - | 0 W/m² | - |
| 1777746734 | 21.11° C | 59% | 1010.4 hPa | 0 mm | - | 0 W/m² | - |
| 1777745834 | 21.11° C | 57% | 1010.7 hPa | 0 mm | - | 0 W/m² | - |
| 1777744934 | 21.11° C | 57% | 1010.7 hPa | 0 mm | - | 0 W/m² | - |
* Rain latest hour (hover to see other rain measurements)
** Current wind speed in m/s (hover to see current wind gust speed)